sensor_id;sensor_type;location;lat;lon;timestamp;P1;durP1;ratioP1;P2;durP2;ratioP2
21038;SDS011;10678;51.002;4.786;2023-02-18T00:01:13;22.80;;;14.40;;
21038;SDS011;10678;51.002;4.786;2023-02-18T00:03:41;24.92;;;14.52;;
21038;SDS011;10678;51.002;4.786;2023-02-18T00:06:11;24.83;;;14.05;;
21038;SDS011;10678;51.002;4.786;2023-02-18T00:08:45;21.77;;;13.68;;
21038;SDS011;10678;51.002;4.786;2023-02-18T00:11:12;25.65;;;14.82;;
21038;SDS011;10678;51.002;4.786;2023-02-18T00:13:38;26.77;;;15.63;;
21038;SDS011;10678;51.002;4.786;2023-02-18T00:16:06;25.20;;;14.13;;
21038;SDS011;10678;51.002;4.786;2023-02-18T00:18:33;24.85;;;14.38;;
21038;SDS011;10678;51.002;4.786;2023-02-18T00:20:59;25.35;;;14.82;;
21038;SDS011;10678;51.002;4.786;2023-02-18T00:23:24;24.20;;;13.70;;
21038;SDS011;10678;51.002;4.786;2023-02-18T00:25:58;24.70;;;14.60;;
21038;SDS011;10678;51.002;4.786;2023-02-18T00:28:25;21.30;;;13.27;;
21038;SDS011;10678;51.002;4.786;2023-02-18T00:30:50;23.60;;;13.57;;
21038;SDS011;10678;51.002;4.786;2023-02-18T00:33:16;26.20;;;14.02;;
21038;SDS011;10678;51.002;4.786;2023-02-18T00:35:41;24.58;;;13.88;;
21038;SDS011;10678;51.002;4.786;2023-02-18T00:38:07;22.83;;;13.00;;
21038;SDS011;10678;51.002;4.786;2023-02-18T00:40:35;21.52;;;12.05;;
21038;SDS011;10678;51.002;4.786;2023-02-18T00:43:02;21.02;;;12.68;;
21038;SDS011;10678;51.002;4.786;2023-02-18T00:45:27;20.15;;;12.15;;
21038;SDS011;10678;51.002;4.786;2023-02-18T00:47:53;21.92;;;11.95;;
21038;SDS011;10678;51.002;4.786;2023-02-18T00:50:18;24.27;;;12.65;;
21038;SDS011;10678;51.002;4.786;2023-02-18T00:52:44;18.48;;;11.43;;
21038;SDS011;10678;51.002;4.786;2023-02-18T00:55:09;17.40;;;11.45;;
21038;SDS011;10678;51.002;4.786;2023-02-18T00:57:35;18.13;;;11.57;;
21038;SDS011;10678;51.002;4.786;2023-02-18T01:00:01;17.92;;;10.63;;
21038;SDS011;10678;51.002;4.786;2023-02-18T01:02:29;19.73;;;11.00;;
21038;SDS011;10678;51.002;4.786;2023-02-18T01:04:54;23.88;;;11.25;;
21038;SDS011;10678;51.002;4.786;2023-02-18T01:07:20;17.80;;;10.70;;
21038;SDS011;10678;51.002;4.786;2023-02-18T01:09:45;18.45;;;10.35;;
21038;SDS011;10678;51.002;4.786;2023-02-18T01:12:11;17.55;;;9.77;;
21038;SDS011;10678;51.002;4.786;2023-02-18T01:14:36;17.50;;;9.85;;
21038;SDS011;10678;51.002;4.786;2023-02-18T01:17:02;18.42;;;9.88;;
21038;SDS011;10678;51.002;4.786;2023-02-18T01:19:28;15.20;;;8.73;;
21038;SDS011;10678;51.002;4.786;2023-02-18T01:21:53;16.98;;;9.35;;
21038;SDS011;10678;51.002;4.786;2023-02-18T01:24:19;16.55;;;9.30;;
21038;SDS011;10678;51.002;4.786;2023-02-18T01:26:44;16.65;;;9.10;;
21038;SDS011;10678;51.002;4.786;2023-02-18T01:29:10;18.05;;;8.50;;
21038;SDS011;10678;51.002;4.786;2023-02-18T01:31:37;16.50;;;8.63;;
21038;SDS011;10678;51.002;4.786;2023-02-18T01:34:02;14.10;;;7.30;;
21038;SDS011;10678;51.002;4.786;2023-02-18T01:36:28;14.27;;;8.00;;
21038;SDS011;10678;51.002;4.786;2023-02-18T01:38:54;16.15;;;7.22;;
21038;SDS011;10678;51.002;4.786;2023-02-18T01:41:19;15.63;;;7.18;;
21038;SDS011;10678;51.002;4.786;2023-02-18T01:43:45;14.20;;;7.35;;
21038;SDS011;10678;51.002;4.786;2023-02-18T01:46:18;10.95;;;6.40;;
21038;SDS011;10678;51.002;4.786;2023-02-18T01:48:50;11.32;;;6.57;;
21038;SDS011;10678;51.002;4.786;2023-02-18T01:54:01;11.18;;;5.97;;
21038;SDS011;10678;51.002;4.786;2023-02-18T01:56:39;12.45;;;6.18;;
21038;SDS011;10678;51.002;4.786;2023-02-18T01:59:30;11.38;;;5.35;;
21038;SDS011;10678;51.002;4.786;2023-02-18T02:02:06;10.45;;;4.97;;
21038;SDS011;10678;51.002;4.786;2023-02-18T02:04:35;8.85;;;4.35;;
21038;SDS011;10678;51.002;4.786;2023-02-18T02:07:00;9.07;;;4.72;;
21038;SDS011;10678;51.002;4.786;2023-02-18T02:09:26;6.60;;;3.40;;
21038;SDS011;10678;51.002;4.786;2023-02-18T02:28:20;4.55;;;2.15;;
21038;SDS011;10678;51.002;4.786;2023-02-18T02:45:18;9.38;;;2.53;;
21038;SDS011;10678;51.002;4.786;2023-02-18T02:53:12;5.72;;;2.03;;
21038;SDS011;10678;51.002;4.786;2023-02-18T02:55:41;4.38;;;2.10;;
21038;SDS011;10678;51.002;4.786;2023-02-18T02:58:08;6.35;;;2.20;;
21038;SDS011;10678;51.002;4.786;2023-02-18T03:08:48;4.45;;;1.95;;
21038;SDS011;10678;51.002;4.786;2023-02-18T03:11:46;5.70;;;2.20;;
21038;SDS011;10678;51.002;4.786;2023-02-18T03:14:28;5.22;;;2.03;;
21038;SDS011;10678;51.002;4.786;2023-02-18T03:24:45;3.80;;;1.60;;
21038;SDS011;10678;51.002;4.786;2023-02-18T03:27:20;3.60;;;1.50;;
21038;SDS011;10678;51.002;4.786;2023-02-18T03:30:05;3.72;;;1.60;;
21038;SDS011;10678;51.002;4.786;2023-02-18T03:32:36;3.65;;;1.60;;
21038;SDS011;10678;51.002;4.786;2023-02-18T03:35:04;2.63;;;1.13;;
21038;SDS011;10678;51.002;4.786;2023-02-18T03:37:34;4.40;;;2.08;;
21038;SDS011;10678;51.002;4.786;2023-02-18T03:40:04;3.83;;;1.77;;
21038;SDS011;10678;51.002;4.786;2023-02-18T03:42:30;3.60;;;1.45;;
21038;SDS011;10678;51.002;4.786;2023-02-18T03:44:56;5.00;;;1.60;;
21038;SDS011;10678;51.002;4.786;2023-02-18T03:47:23;4.47;;;1.40;;
21038;SDS011;10678;51.002;4.786;2023-02-18T03:49:49;4.35;;;1.80;;
21038;SDS011;10678;51.002;4.786;2023-02-18T03:52:14;5.10;;;2.05;;
21038;SDS011;10678;51.002;4.786;2023-02-18T03:54:40;4.45;;;1.98;;
21038;SDS011;10678;51.002;4.786;2023-02-18T03:57:06;3.97;;;1.92;;
21038;SDS011;10678;51.002;4.786;2023-02-18T03:59:32;3.95;;;1.88;;
21038;SDS011;10678;51.002;4.786;2023-02-18T04:01:58;5.28;;;1.75;;
21038;SDS011;10678;51.002;4.786;2023-02-18T04:04:23;4.20;;;1.90;;
21038;SDS011;10678;51.002;4.786;2023-02-18T04:06:49;4.60;;;2.00;;
21038;SDS011;10678;51.002;4.786;2023-02-18T04:09:14;4.22;;;1.65;;
21038;SDS011;10678;51.002;4.786;2023-02-18T04:11:40;3.97;;;1.63;;
21038;SDS011;10678;51.002;4.786;2023-02-18T04:14:06;3.83;;;1.65;;
21038;SDS011;10678;51.002;4.786;2023-02-18T04:16:32;4.32;;;1.95;;
21038;SDS011;10678;51.002;4.786;2023-02-18T04:18:58;4.90;;;1.80;;
21038;SDS011;10678;51.002;4.786;2023-02-18T04:21:24;3.78;;;1.67;;
21038;SDS011;10678;51.002;4.786;2023-02-18T04:23:50;4.70;;;1.85;;
21038;SDS011;10678;51.002;4.786;2023-02-18T04:26:15;4.03;;;1.63;;
21038;SDS011;10678;51.002;4.786;2023-02-18T04:28:41;5.22;;;2.03;;
21038;SDS011;10678;51.002;4.786;2023-02-18T04:31:06;4.45;;;2.00;;
21038;SDS011;10678;51.002;4.786;2023-02-18T04:33:32;5.57;;;1.90;;
21038;SDS011;10678;51.002;4.786;2023-02-18T04:35:58;5.22;;;2.30;;
21038;SDS011;10678;51.002;4.786;2023-02-18T04:38:23;3.95;;;1.80;;
21038;SDS011;10678;51.002;4.786;2023-02-18T04:40:49;4.55;;;2.00;;
21038;SDS011;10678;51.002;4.786;2023-02-18T04:43:14;4.55;;;2.15;;
21038;SDS011;10678;51.002;4.786;2023-02-18T04:45:40;3.95;;;1.85;;
21038;SDS011;10678;51.002;4.786;2023-02-18T04:48:05;4.38;;;1.80;;
21038;SDS011;10678;51.002;4.786;2023-02-18T04:50:31;4.28;;;1.60;;
21038;SDS011;10678;51.002;4.786;2023-02-18T04:52:59;4.05;;;1.58;;
21038;SDS011;10678;51.002;4.786;2023-02-18T04:55:24;3.80;;;1.63;;
21038;SDS011;10678;51.002;4.786;2023-02-18T04:57:50;3.85;;;1.75;;
21038;SDS011;10678;51.002;4.786;2023-02-18T05:00:16;3.70;;;1.60;;
21038;SDS011;10678;51.002;4.786;2023-02-18T05:02:43;3.65;;;1.67;;
21038;SDS011;10678;51.002;4.786;2023-02-18T05:05:10;4.13;;;1.80;;
21038;SDS011;10678;51.002;4.786;2023-02-18T05:07:36;3.83;;;1.70;;
21038;SDS011;10678;51.002;4.786;2023-02-18T05:10:02;5.38;;;2.35;;
21038;SDS011;10678;51.002;4.786;2023-02-18T05:12:28;4.32;;;2.08;;
21038;SDS011;10678;51.002;4.786;2023-02-18T05:14:54;3.85;;;1.75;;
21038;SDS011;10678;51.002;4.786;2023-02-18T05:17:19;4.40;;;1.80;;
21038;SDS011;10678;51.002;4.786;2023-02-18T05:19:45;4.45;;;1.90;;
21038;SDS011;10678;51.002;4.786;2023-02-18T05:22:10;4.20;;;2.10;;
21038;SDS011;10678;51.002;4.786;2023-02-18T05:24:36;4.60;;;2.13;;
21038;SDS011;10678;51.002;4.786;2023-02-18T05:27:02;4.68;;;2.20;;
21038;SDS011;10678;51.002;4.786;2023-02-18T05:29:27;4.57;;;2.00;;
21038;SDS011;10678;51.002;4.786;2023-02-18T05:31:53;5.18;;;2.30;;
21038;SDS011;10678;51.002;4.786;2023-02-18T05:34:19;5.53;;;1.92;;
21038;SDS011;10678;51.002;4.786;2023-02-18T05:36:44;4.25;;;2.00;;
21038;SDS011;10678;51.002;4.786;2023-02-18T05:39:10;6.05;;;2.33;;
21038;SDS011;10678;51.002;4.786;2023-02-18T05:41:35;5.03;;;2.42;;
21038;SDS011;10678;51.002;4.786;2023-02-18T05:44:01;5.22;;;2.47;;
21038;SDS011;10678;51.002;4.786;2023-02-18T05:46:46;4.18;;;1.98;;
21038;SDS011;10678;51.002;4.786;2023-02-18T05:49:11;3.72;;;1.95;;
21038;SDS011;10678;51.002;4.786;2023-02-18T05:51:37;4.20;;;2.10;;
21038;SDS011;10678;51.002;4.786;2023-02-18T05:54:03;4.10;;;2.03;;
21038;SDS011;10678;51.002;4.786;2023-02-18T05:56:29;3.97;;;1.73;;
21038;SDS011;10678;51.002;4.786;2023-02-18T05:58:54;5.32;;;1.73;;
21038;SDS011;10678;51.002;4.786;2023-02-18T06:01:20;4.43;;;1.73;;
21038;SDS011;10678;51.002;4.786;2023-02-18T06:03:46;4.28;;;1.40;;
21038;SDS011;10678;51.002;4.786;2023-02-18T06:06:11;4.03;;;1.60;;
21038;SDS011;10678;51.002;4.786;2023-02-18T06:08:37;3.38;;;1.48;;
21038;SDS011;10678;51.002;4.786;2023-02-18T06:11:03;2.65;;;1.02;;
21038;SDS011;10678;51.002;4.786;2023-02-18T06:13:28;4.50;;;1.30;;
21038;SDS011;10678;51.002;4.786;2023-02-18T06:15:54;3.78;;;1.38;;
21038;SDS011;10678;51.002;4.786;2023-02-18T06:18:20;5.60;;;1.50;;
21038;SDS011;10678;51.002;4.786;2023-02-18T06:20:46;3.35;;;1.25;;
21038;SDS011;10678;51.002;4.786;2023-02-18T06:23:13;4.15;;;1.33;;
21038;SDS011;10678;51.002;4.786;2023-02-18T06:25:39;6.18;;;1.70;;
21038;SDS011;10678;51.002;4.786;2023-02-18T06:28:06;11.18;;;1.92;;
21038;SDS011;10678;51.002;4.786;2023-02-18T06:30:31;6.82;;;1.50;;
21038;SDS011;10678;51.002;4.786;2023-02-18T06:32:57;5.55;;;1.75;;
21038;SDS011;10678;51.002;4.786;2023-02-18T06:35:22;6.05;;;1.67;;
21038;SDS011;10678;51.002;4.786;2023-02-18T06:37:48;9.07;;;2.42;;
21038;SDS011;10678;51.002;4.786;2023-02-18T06:40:13;11.70;;;1.50;;
21038;SDS011;10678;51.002;4.786;2023-02-18T06:42:40;10.00;;;1.52;;
21038;SDS011;10678;51.002;4.786;2023-02-18T06:45:13;6.20;;;1.73;;
21038;SDS011;10678;51.002;4.786;2023-02-18T06:47:42;10.18;;;1.60;;
21038;SDS011;10678;51.002;4.786;2023-02-18T06:50:07;11.48;;;2.03;;
21038;SDS011;10678;51.002;4.786;2023-02-18T06:52:33;8.38;;;2.50;;
21038;SDS011;10678;51.002;4.786;2023-02-18T06:54:59;9.10;;;1.85;;
21038;SDS011;10678;51.002;4.786;2023-02-18T06:57:25;7.97;;;2.03;;
21038;SDS011;10678;51.002;4.786;2023-02-18T06:59:51;8.25;;;2.08;;
21038;SDS011;10678;51.002;4.786;2023-02-18T07:02:17;11.80;;;2.17;;
21038;SDS011;10678;51.002;4.786;2023-02-18T07:04:42;10.85;;;1.67;;
21038;SDS011;10678;51.002;4.786;2023-02-18T07:07:10;10.10;;;1.73;;
21038;SDS011;10678;51.002;4.786;2023-02-18T07:09:35;10.38;;;2.00;;
21038;SDS011;10678;51.002;4.786;2023-02-18T07:12:01;11.27;;;2.20;;
21038;SDS011;10678;51.002;4.786;2023-02-18T07:14:27;9.38;;;2.08;;
21038;SDS011;10678;51.002;4.786;2023-02-18T07:16:53;10.07;;;1.98;;
21038;SDS011;10678;51.002;4.786;2023-02-18T07:19:18;19.13;;;2.80;;
21038;SDS011;10678;51.002;4.786;2023-02-18T07:21:44;11.00;;;2.22;;
21038;SDS011;10678;51.002;4.786;2023-02-18T07:24:09;16.80;;;2.38;;
21038;SDS011;10678;51.002;4.786;2023-02-18T07:26:35;9.55;;;1.58;;
21038;SDS011;10678;51.002;4.786;2023-02-18T07:29:00;17.88;;;2.75;;
21038;SDS011;10678;51.002;4.786;2023-02-18T07:31:26;16.13;;;2.53;;
21038;SDS011;10678;51.002;4.786;2023-02-18T07:33:52;14.38;;;2.83;;
21038;SDS011;10678;51.002;4.786;2023-02-18T07:36:18;11.68;;;1.92;;
21038;SDS011;10678;51.002;4.786;2023-02-18T07:38:43;17.55;;;2.72;;
21038;SDS011;10678;51.002;4.786;2023-02-18T07:41:16;12.02;;;1.80;;
21038;SDS011;10678;51.002;4.786;2023-02-18T07:43:43;10.88;;;2.22;;
21038;SDS011;10678;51.002;4.786;2023-02-18T07:46:09;11.65;;;1.92;;
21038;SDS011;10678;51.002;4.786;2023-02-18T07:48:35;15.82;;;2.88;;
21038;SDS011;10678;51.002;4.786;2023-02-18T07:51:03;14.15;;;1.80;;
21038;SDS011;10678;51.002;4.786;2023-02-18T07:53:30;14.52;;;2.28;;
21038;SDS011;10678;51.002;4.786;2023-02-18T07:55:57;12.90;;;2.40;;
21038;SDS011;10678;51.002;4.786;2023-02-18T07:58:25;15.85;;;1.95;;
21038;SDS011;10678;51.002;4.786;2023-02-18T08:00:54;9.13;;;1.75;;
21038;SDS011;10678;51.002;4.786;2023-02-18T08:03:20;11.05;;;2.42;;
21038;SDS011;10678;51.002;4.786;2023-02-18T08:05:48;13.60;;;2.72;;
21038;SDS011;10678;51.002;4.786;2023-02-18T08:08:15;10.73;;;2.80;;
21038;SDS011;10678;51.002;4.786;2023-02-18T08:10:45;10.10;;;2.13;;
21038;SDS011;10678;51.002;4.786;2023-02-18T08:13:12;16.58;;;2.17;;
21038;SDS011;10678;51.002;4.786;2023-02-18T08:15:38;16.92;;;2.25;;
21038;SDS011;10678;51.002;4.786;2023-02-18T08:18:04;9.18;;;2.03;;
21038;SDS011;10678;51.002;4.786;2023-02-18T08:20:34;13.50;;;2.67;;
21038;SDS011;10678;51.002;4.786;2023-02-18T08:23:00;10.60;;;2.00;;
21038;SDS011;10678;51.002;4.786;2023-02-18T08:25:26;15.15;;;2.10;;
21038;SDS011;10678;51.002;4.786;2023-02-18T08:27:52;13.20;;;2.13;;
21038;SDS011;10678;51.002;4.786;2023-02-18T08:30:17;21.83;;;2.63;;
21038;SDS011;10678;51.002;4.786;2023-02-18T08:32:43;9.23;;;2.47;;
21038;SDS011;10678;51.002;4.786;2023-02-18T08:35:09;12.95;;;2.00;;
21038;SDS011;10678;51.002;4.786;2023-02-18T08:37:36;17.25;;;2.47;;
21038;SDS011;10678;51.002;4.786;2023-02-18T08:40:02;16.70;;;2.63;;
21038;SDS011;10678;51.002;4.786;2023-02-18T08:42:27;14.13;;;3.00;;
21038;SDS011;10678;51.002;4.786;2023-02-18T08:44:53;12.93;;;2.03;;
21038;SDS011;10678;51.002;4.786;2023-02-18T08:47:19;14.88;;;2.05;;
21038;SDS011;10678;51.002;4.786;2023-02-18T08:49:44;9.60;;;2.13;;
21038;SDS011;10678;51.002;4.786;2023-02-18T08:52:10;13.35;;;2.08;;
21038;SDS011;10678;51.002;4.786;2023-02-18T08:54:35;14.27;;;2.28;;
21038;SDS011;10678;51.002;4.786;2023-02-18T08:57:01;12.15;;;2.33;;
21038;SDS011;10678;51.002;4.786;2023-02-18T08:59:27;10.15;;;2.28;;
21038;SDS011;10678;51.002;4.786;2023-02-18T09:01:52;9.82;;;1.90;;
21038;SDS011;10678;51.002;4.786;2023-02-18T09:04:18;17.17;;;2.53;;
21038;SDS011;10678;51.002;4.786;2023-02-18T09:06:45;9.93;;;1.92;;
21038;SDS011;10678;51.002;4.786;2023-02-18T09:09:15;8.00;;;1.88;;
21038;SDS011;10678;51.002;4.786;2023-02-18T09:11:41;8.93;;;1.90;;
21038;SDS011;10678;51.002;4.786;2023-02-18T09:14:07;10.57;;;1.75;;
21038;SDS011;10678;51.002;4.786;2023-02-18T09:16:33;12.65;;;2.10;;
21038;SDS011;10678;51.002;4.786;2023-02-18T09:18:58;11.20;;;1.67;;
21038;SDS011;10678;51.002;4.786;2023-02-18T09:21:24;11.90;;;1.75;;
21038;SDS011;10678;51.002;4.786;2023-02-18T09:23:51;7.82;;;1.38;;
21038;SDS011;10678;51.002;4.786;2023-02-18T09:26:17;10.13;;;2.28;;
21038;SDS011;10678;51.002;4.786;2023-02-18T09:28:49;12.18;;;2.00;;
21038;SDS011;10678;51.002;4.786;2023-02-18T09:31:16;8.40;;;1.85;;
21038;SDS011;10678;51.002;4.786;2023-02-18T09:33:45;9.45;;;1.70;;
21038;SDS011;10678;51.002;4.786;2023-02-18T09:36:13;9.20;;;1.55;;
21038;SDS011;10678;51.002;4.786;2023-02-18T09:38:39;9.30;;;1.50;;
21038;SDS011;10678;51.002;4.786;2023-02-18T09:44:08;10.18;;;1.63;;
21038;SDS011;10678;51.002;4.786;2023-02-18T09:46:38;6.38;;;1.65;;
21038;SDS011;10678;51.002;4.786;2023-02-18T09:49:14;8.30;;;1.60;;
21038;SDS011;10678;51.002;4.786;2023-02-18T09:51:42;9.02;;;1.52;;
21038;SDS011;10678;51.002;4.786;2023-02-18T09:54:13;8.63;;;1.67;;
21038;SDS011;10678;51.002;4.786;2023-02-18T09:56:41;11.75;;;1.75;;
21038;SDS011;10678;51.002;4.786;2023-02-18T09:59:10;8.05;;;1.70;;
21038;SDS011;10678;51.002;4.786;2023-02-18T10:01:42;10.60;;;1.58;;
21038;SDS011;10678;51.002;4.786;2023-02-18T10:04:15;13.55;;;2.05;;
21038;SDS011;10678;51.002;4.786;2023-02-18T10:07:07;9.68;;;2.28;;
21038;SDS011;10678;51.002;4.786;2023-02-18T10:09:55;12.05;;;2.15;;
21038;SDS011;10678;51.002;4.786;2023-02-18T10:12:26;6.68;;;1.50;;
21038;SDS011;10678;51.002;4.786;2023-02-18T10:14:57;11.52;;;1.60;;
21038;SDS011;10678;51.002;4.786;2023-02-18T10:17:26;8.85;;;2.15;;
21038;SDS011;10678;51.002;4.786;2023-02-18T10:19:56;7.70;;;1.30;;
21038;SDS011;10678;51.002;4.786;2023-02-18T10:22:24;6.82;;;1.23;;
21038;SDS011;10678;51.002;4.786;2023-02-18T10:27:18;11.65;;;2.05;;
21038;SDS011;10678;51.002;4.786;2023-02-18T10:29:49;9.07;;;1.50;;
21038;SDS011;10678;51.002;4.786;2023-02-18T10:34:59;11.68;;;1.83;;
21038;SDS011;10678;51.002;4.786;2023-02-18T10:46:10;10.25;;;1.45;;
21038;SDS011;10678;51.002;4.786;2023-02-18T10:51:31;7.78;;;1.60;;
21038;SDS011;10678;51.002;4.786;2023-02-18T10:53:59;11.52;;;1.50;;
21038;SDS011;10678;51.002;4.786;2023-02-18T11:01:45;13.23;;;1.88;;
21038;SDS011;10678;51.002;4.786;2023-02-18T11:04:37;6.80;;;1.55;;
21038;SDS011;10678;51.002;4.786;2023-02-18T11:07:05;10.77;;;1.80;;
21038;SDS011;10678;51.002;4.786;2023-02-18T11:12:17;6.95;;;1.77;;
21038;SDS011;10678;51.002;4.786;2023-02-18T11:14:48;9.00;;;1.65;;
21038;SDS011;10678;51.002;4.786;2023-02-18T11:17:34;7.82;;;1.73;;
21038;SDS011;10678;51.002;4.786;2023-02-18T11:20:04;10.82;;;2.10;;
21038;SDS011;10678;51.002;4.786;2023-02-18T11:25:30;5.57;;;1.13;;
21038;SDS011;10678;51.002;4.786;2023-02-18T11:28:00;12.43;;;2.05;;
21038;SDS011;10678;51.002;4.786;2023-02-18T11:30:41;6.13;;;1.73;;
21038;SDS011;10678;51.002;4.786;2023-02-18T11:34:10;11.98;;;1.67;;
21038;SDS011;10678;51.002;4.786;2023-02-18T11:36:38;10.80;;;1.30;;
21038;SDS011;10678;51.002;4.786;2023-02-18T11:41:37;10.10;;;1.67;;
21038;SDS011;10678;51.002;4.786;2023-02-18T11:44:30;8.05;;;1.38;;
21038;SDS011;10678;51.002;4.786;2023-02-18T11:46:58;6.90;;;1.48;;
21038;SDS011;10678;51.002;4.786;2023-02-18T11:49:23;8.88;;;1.42;;
21038;SDS011;10678;51.002;4.786;2023-02-18T11:51:50;7.03;;;1.40;;
21038;SDS011;10678;51.002;4.786;2023-02-18T11:54:23;11.48;;;2.10;;
21038;SDS011;10678;51.002;4.786;2023-02-18T11:57:04;7.63;;;1.88;;
21038;SDS011;10678;51.002;4.786;2023-02-18T11:59:35;6.80;;;1.42;;
21038;SDS011;10678;51.002;4.786;2023-02-18T12:04:41;11.15;;;2.08;;
21038;SDS011;10678;51.002;4.786;2023-02-18T12:07:19;8.02;;;1.55;;
21038;SDS011;10678;51.002;4.786;2023-02-18T12:10:21;7.25;;;1.40;;
21038;SDS011;10678;51.002;4.786;2023-02-18T12:12:59;14.13;;;1.90;;
21038;SDS011;10678;51.002;4.786;2023-02-18T12:18:19;13.35;;;2.10;;
21038;SDS011;10678;51.002;4.786;2023-02-18T12:34:22;8.00;;;1.83;;
21038;SDS011;10678;51.002;4.786;2023-02-18T12:40:00;11.35;;;2.35;;
21038;SDS011;10678;51.002;4.786;2023-02-18T12:43:01;12.20;;;1.80;;
21038;SDS011;10678;51.002;4.786;2023-02-18T12:48:49;9.43;;;2.30;;
21038;SDS011;10678;51.002;4.786;2023-02-18T12:54:56;16.17;;;2.55;;
21038;SDS011;10678;51.002;4.786;2023-02-18T13:03:00;12.73;;;1.85;;
21038;SDS011;10678;51.002;4.786;2023-02-18T13:11:03;10.18;;;2.55;;
21038;SDS011;10678;51.002;4.786;2023-02-18T13:13:59;12.88;;;2.30;;
21038;SDS011;10678;51.002;4.786;2023-02-18T13:16:35;10.73;;;2.50;;
21038;SDS011;10678;51.002;4.786;2023-02-18T13:19:13;10.27;;;2.33;;
21038;SDS011;10678;51.002;4.786;2023-02-18T13:21:39;10.88;;;2.60;;
21038;SDS011;10678;51.002;4.786;2023-02-18T13:24:09;11.85;;;2.70;;
21038;SDS011;10678;51.002;4.786;2023-02-18T13:26:37;8.85;;;2.20;;
21038;SDS011;10678;51.002;4.786;2023-02-18T13:31:46;16.17;;;2.97;;
21038;SDS011;10678;51.002;4.786;2023-02-18T13:35:08;11.30;;;2.50;;
21038;SDS011;10678;51.002;4.786;2023-02-18T13:37:11;12.70;;;2.15;;
21038;SDS011;10678;51.002;4.786;2023-02-18T13:39:54;9.00;;;2.08;;
21038;SDS011;10678;51.002;4.786;2023-02-18T13:42:23;8.73;;;2.40;;
21038;SDS011;10678;51.002;4.786;2023-02-18T13:48:03;10.07;;;2.33;;
21038;SDS011;10678;51.002;4.786;2023-02-18T13:50:14;9.50;;;2.38;;
21038;SDS011;10678;51.002;4.786;2023-02-18T13:55:40;16.55;;;2.88;;
21038;SDS011;10678;51.002;4.786;2023-02-18T14:01:00;13.18;;;2.05;;
21038;SDS011;10678;51.002;4.786;2023-02-18T14:05:55;12.40;;;2.65;;
21038;SDS011;10678;51.002;4.786;2023-02-18T14:08:32;10.63;;;2.20;;
21038;SDS011;10678;51.002;4.786;2023-02-18T14:13:37;11.13;;;2.13;;
21038;SDS011;10678;51.002;4.786;2023-02-18T14:16:05;9.60;;;2.38;;
21038;SDS011;10678;51.002;4.786;2023-02-18T14:18:33;11.95;;;2.10;;
21038;SDS011;10678;51.002;4.786;2023-02-18T14:21:20;15.10;;;2.55;;
21038;SDS011;10678;51.002;4.786;2023-02-18T14:23:59;10.38;;;2.50;;
21038;SDS011;10678;51.002;4.786;2023-02-18T14:26:30;11.35;;;2.50;;
21038;SDS011;10678;51.002;4.786;2023-02-18T14:29:03;11.07;;;2.88;;
21038;SDS011;10678;51.002;4.786;2023-02-18T14:31:33;13.18;;;2.88;;
21038;SDS011;10678;51.002;4.786;2023-02-18T14:50:32;9.80;;;2.33;;
21038;SDS011;10678;51.002;4.786;2023-02-18T14:53:02;13.32;;;2.63;;
21038;SDS011;10678;51.002;4.786;2023-02-18T14:55:34;9.25;;;2.50;;
21038;SDS011;10678;51.002;4.786;2023-02-18T14:58:04;8.27;;;2.50;;
21038;SDS011;10678;51.002;4.786;2023-02-18T15:00:33;14.95;;;2.35;;
21038;SDS011;10678;51.002;4.786;2023-02-18T15:03:03;10.50;;;2.92;;
21038;SDS011;10678;51.002;4.786;2023-02-18T15:05:36;11.52;;;2.45;;
21038;SDS011;10678;51.002;4.786;2023-02-18T15:08:04;16.40;;;3.00;;
21038;SDS011;10678;51.002;4.786;2023-02-18T15:10:36;10.27;;;2.97;;
21038;SDS011;10678;51.002;4.786;2023-02-18T15:13:31;7.20;;;2.65;;
21038;SDS011;10678;51.002;4.786;2023-02-18T15:16:11;13.10;;;2.60;;
21038;SDS011;10678;51.002;4.786;2023-02-18T15:18:52;6.03;;;2.00;;
21038;SDS011;10678;51.002;4.786;2023-02-18T15:21:25;12.25;;;2.67;;
21038;SDS011;10678;51.002;4.786;2023-02-18T15:23:53;6.53;;;2.10;;
21038;SDS011;10678;51.002;4.786;2023-02-18T15:26:22;10.30;;;2.20;;
21038;SDS011;10678;51.002;4.786;2023-02-18T15:29:01;7.25;;;2.40;;
21038;SDS011;10678;51.002;4.786;2023-02-18T15:31:30;7.72;;;2.55;;
21038;SDS011;10678;51.002;4.786;2023-02-18T15:33:59;8.70;;;2.08;;
21038;SDS011;10678;51.002;4.786;2023-02-18T15:36:25;8.57;;;2.47;;
21038;SDS011;10678;51.002;4.786;2023-02-18T15:38:51;9.38;;;2.35;;
21038;SDS011;10678;51.002;4.786;2023-02-18T15:41:17;9.95;;;2.33;;
21038;SDS011;10678;51.002;4.786;2023-02-18T15:43:55;7.38;;;2.50;;
21038;SDS011;10678;51.002;4.786;2023-02-18T15:46:25;10.27;;;2.60;;
21038;SDS011;10678;51.002;4.786;2023-02-18T15:48:53;11.27;;;2.53;;
21038;SDS011;10678;51.002;4.786;2023-02-18T15:51:21;10.98;;;2.60;;
21038;SDS011;10678;51.002;4.786;2023-02-18T15:53:51;16.10;;;4.32;;
21038;SDS011;10678;51.002;4.786;2023-02-18T15:56:25;10.43;;;2.28;;
21038;SDS011;10678;51.002;4.786;2023-02-18T16:01:42;8.48;;;2.90;;
21038;SDS011;10678;51.002;4.786;2023-02-18T16:04:16;13.35;;;3.47;;
21038;SDS011;10678;51.002;4.786;2023-02-18T16:06:45;8.50;;;3.40;;
21038;SDS011;10678;51.002;4.786;2023-02-18T16:09:18;10.68;;;2.92;;
21038;SDS011;10678;51.002;4.786;2023-02-18T16:12:13;12.82;;;3.58;;
21038;SDS011;10678;51.002;4.786;2023-02-18T16:14:54;9.35;;;2.97;;
21038;SDS011;10678;51.002;4.786;2023-02-18T16:17:22;10.40;;;3.30;;
21038;SDS011;10678;51.002;4.786;2023-02-18T16:30:14;8.98;;;2.58;;
21038;SDS011;10678;51.002;4.786;2023-02-18T16:32:45;10.32;;;2.83;;
21038;SDS011;10678;51.002;4.786;2023-02-18T16:35:11;11.30;;;3.05;;
21038;SDS011;10678;51.002;4.786;2023-02-18T16:37:37;7.38;;;3.20;;
21038;SDS011;10678;51.002;4.786;2023-02-18T16:40:06;11.63;;;3.17;;
21038;SDS011;10678;51.002;4.786;2023-02-18T16:42:42;12.30;;;3.30;;
21038;SDS011;10678;51.002;4.786;2023-02-18T16:45:10;10.88;;;3.05;;
21038;SDS011;10678;51.002;4.786;2023-02-18T16:47:37;12.07;;;3.83;;
21038;SDS011;10678;51.002;4.786;2023-02-18T16:50:03;11.65;;;3.67;;
21038;SDS011;10678;51.002;4.786;2023-02-18T16:52:29;13.82;;;5.57;;
21038;SDS011;10678;51.002;4.786;2023-02-18T16:54:55;8.93;;;3.08;;
21038;SDS011;10678;51.002;4.786;2023-02-18T16:57:21;12.57;;;3.22;;
21038;SDS011;10678;51.002;4.786;2023-02-18T16:59:46;9.10;;;2.78;;
21038;SDS011;10678;51.002;4.786;2023-02-18T17:02:17;13.02;;;3.00;;
21038;SDS011;10678;51.002;4.786;2023-02-18T17:04:45;15.93;;;5.43;;
21038;SDS011;10678;51.002;4.786;2023-02-18T17:07:11;12.10;;;3.97;;
21038;SDS011;10678;51.002;4.786;2023-02-18T17:09:36;15.07;;;5.10;;
21038;SDS011;10678;51.002;4.786;2023-02-18T17:12:02;9.07;;;3.53;;
21038;SDS011;10678;51.002;4.786;2023-02-18T17:14:29;27.92;;;13.00;;
21038;SDS011;10678;51.002;4.786;2023-02-18T17:16:55;7.78;;;3.88;;
21038;SDS011;10678;51.002;4.786;2023-02-18T17:19:22;13.05;;;4.57;;
21038;SDS011;10678;51.002;4.786;2023-02-18T17:21:47;14.52;;;5.80;;
21038;SDS011;10678;51.002;4.786;2023-02-18T17:24:14;14.50;;;3.75;;
21038;SDS011;10678;51.002;4.786;2023-02-18T17:26:41;10.63;;;3.30;;
21038;SDS011;10678;51.002;4.786;2023-02-18T17:29:07;11.18;;;3.35;;
21038;SDS011;10678;51.002;4.786;2023-02-18T17:31:34;16.70;;;3.20;;
21038;SDS011;10678;51.002;4.786;2023-02-18T17:34:03;11.95;;;3.28;;
21038;SDS011;10678;51.002;4.786;2023-02-18T17:36:31;15.50;;;3.88;;
21038;SDS011;10678;51.002;4.786;2023-02-18T17:38:57;8.13;;;3.30;;
21038;SDS011;10678;51.002;4.786;2023-02-18T17:41:24;7.82;;;3.60;;
21038;SDS011;10678;51.002;4.786;2023-02-18T17:43:49;10.43;;;4.40;;
21038;SDS011;10678;51.002;4.786;2023-02-18T17:46:16;12.82;;;4.20;;